Página principal
METAR-TAF:

METAR-TAF

Aeroportos :

Chengdu, China

Aeroporto Internacional de Chengdu Shuangliu

latitude: 30-40N, longitude: 104-01E, altura: 508 m

Observação actual do tempo

O boletim foi feito há 1 hora e 4 minutos, às 18:00 UTC
Vento calmo
Temperatura 28°C
Humidade 84%
Pressão 1006 hPa
Visibilidade 10 km ou mais
Poucas nuvensa uma altura de 5000 ft

METAR: ZUUU 281800Z 00000MPS 9999 FEW050 28/25 Q1006 NOSIG

Hora: 03:04 (19:04 UTC)

Previsão

O boletim foi feito há 4 horas e 57 minutos, às 14:07 UTC
Previsão válida de 28 às 18 UTC a 29 às 18 UTC
Vento 6 kt de nor-nordeste
Visibilidade: 5000 m
Nuvens dispersasa uma altura de 5000 ft
neblina
Temporariamente
de 28 às 19 UTC a 28 às 21 UTC
Poucas nuvensa uma altura de 3000 ft, Cumulonimbus.
Nuvens dispersasa uma altura de 3000 ft
trovoada, chuva fraca

TAF: ZUUU 281407Z 2818/2918 02003MPS 5000 BR SCT050 TX36/2907Z TN23/2821Z TEMPO 2819/2821 -TSRA FEW030CB SCT030

Observações e previsões do tempo de mais de 4000 aeroportos (mensagens METAR e TAF).

As estações disponíveis são os pontos amarelos e vermelhos sobre o mapa.

Mova o rato sobre o mapa para ver o nome da estação.

Depois clique no ponto para visualizar as observações e previsões meteorológicas.

Para alterar o mapa : clique nos botões verdes com uma cruz preta para aumentar o zoom; no botão verde com uma pitada de zoom; ou nas setas verdes para mapas adjacentes.


METAR-TAF: